createdAt,value
2018-06-17T00:00:16.535Z,16.80
2018-06-17T00:02:45.105Z,16.70
2018-06-17T00:05:13.589Z,16.70
2018-06-17T00:07:42.086Z,16.70
2018-06-17T00:10:10.643Z,16.80
2018-06-17T00:12:39.130Z,17.00
2018-06-17T00:15:07.612Z,16.90
2018-06-17T00:17:36.244Z,16.90
2018-06-17T00:20:04.919Z,16.80
2018-06-17T00:22:33.529Z,16.80
2018-06-17T00:25:02.070Z,16.80
2018-06-17T00:27:30.512Z,16.70
2018-06-17T00:29:59.033Z,16.70
2018-06-17T00:32:27.507Z,16.70
2018-06-17T00:34:56.013Z,16.80
2018-06-17T00:37:24.508Z,16.90
2018-06-17T00:39:53.074Z,16.90
2018-06-17T00:42:21.580Z,17.10
2018-06-17T00:44:50.104Z,17.10
2018-06-17T00:47:18.634Z,17.20
2018-06-17T00:49:47.068Z,17.30
2018-06-17T00:52:15.524Z,17.20
2018-06-17T00:54:44.026Z,17.30
2018-06-17T00:57:23.699Z,17.40
2018-06-17T00:59:52.167Z,17.20
2018-06-17T01:02:20.608Z,17.10
2018-06-17T01:04:49.100Z,17.10
2018-06-17T01:07:17.619Z,17.20
2018-06-17T01:09:46.047Z,17.30
2018-06-17T01:12:14.531Z,17.30
2018-06-17T01:14:43.019Z,17.30
2018-06-17T01:17:11.491Z,17.30
2018-06-17T01:19:40.135Z,17.30
2018-06-17T01:22:08.747Z,17.30
2018-06-17T01:24:37.195Z,17.30
2018-06-17T01:27:05.697Z,17.10
2018-06-17T01:29:34.273Z,17.10
2018-06-17T01:32:02.734Z,17.10
2018-06-17T01:34:31.215Z,17.10
2018-06-17T01:36:59.688Z,17.20
2018-06-17T01:39:28.168Z,17.10
2018-06-17T01:41:56.608Z,17.10
2018-06-17T01:44:25.083Z,17.00
2018-06-17T01:46:53.537Z,17.00
2018-06-17T01:49:22.036Z,17.00
2018-06-17T01:51:50.497Z,16.80
2018-06-17T01:54:18.956Z,16.80
2018-06-17T01:56:47.500Z,16.70
2018-06-17T01:59:15.984Z,16.70
2018-06-17T02:01:44.449Z,16.80
2018-06-17T02:06:51.867Z,16.70
2018-06-17T02:09:25.589Z,16.70
2018-06-17T02:11:59.519Z,16.80
2018-06-17T02:14:33.339Z,16.80
2018-06-17T02:17:01.875Z,16.70
2018-06-17T02:21:58.490Z,16.70
2018-06-17T02:24:26.951Z,16.70
2018-06-17T02:26:55.458Z,16.70
2018-06-17T02:29:23.949Z,16.70
2018-06-17T02:31:52.441Z,16.70
2018-06-17T02:34:21.002Z,16.70
2018-06-17T02:36:49.483Z,16.70
2018-06-17T02:39:18.021Z,16.70
2018-06-17T02:41:46.417Z,16.70
2018-06-17T02:44:14.879Z,16.70
2018-06-17T02:46:49.408Z,16.60
2018-06-17T02:49:23.209Z,16.60
2018-06-17T02:51:57.064Z,16.60
2018-06-17T02:54:34.618Z,16.50
2018-06-17T02:57:04.198Z,16.60
2018-06-17T02:59:32.711Z,16.60
2018-06-17T03:02:01.464Z,16.50
2018-06-17T03:04:30.355Z,16.50
2018-06-17T03:06:58.847Z,16.50
2018-06-17T03:11:56.096Z,16.60
2018-06-17T03:14:24.578Z,16.60
2018-06-17T03:16:53.151Z,16.50
2018-06-17T03:19:22.150Z,16.60
2018-06-17T03:21:50.634Z,16.70
2018-06-17T03:24:23.303Z,16.70
2018-06-17T03:26:57.175Z,16.70
2018-06-17T03:29:30.999Z,16.60
2018-06-17T03:32:04.713Z,16.60
2018-06-17T03:34:33.222Z,16.60
2018-06-17T03:37:01.700Z,16.60
2018-06-17T03:39:30.196Z,16.60
2018-06-17T03:41:58.684Z,16.60
2018-06-17T03:44:27.151Z,16.60
2018-06-17T03:46:55.605Z,16.60
2018-06-17T03:49:24.082Z,16.60
2018-06-17T03:51:52.605Z,16.60
2018-06-17T03:54:21.203Z,16.70
2018-06-17T03:56:49.668Z,16.80
2018-06-17T03:59:18.166Z,16.90
2018-06-17T04:01:46.615Z,17.00
2018-06-17T04:04:15.077Z,17.00
2018-06-17T04:06:43.543Z,17.00
2018-06-17T04:09:12.015Z,17.00
2018-06-17T04:11:40.500Z,17.00
2018-06-17T04:14:08.971Z,17.10
2018-06-17T04:16:37.476Z,17.20
2018-06-17T04:19:12.499Z,17.20
2018-06-17T04:21:40.959Z,17.20
2018-06-17T04:26:37.609Z,17.20
2018-06-17T04:29:06.064Z,17.20
2018-06-17T04:31:34.673Z,17.20
2018-06-17T04:34:03.154Z,17.30
2018-06-17T04:36:31.659Z,17.30
2018-06-17T04:39:00.958Z,17.30
2018-06-17T04:43:57.714Z,17.40
2018-06-17T04:48:54.450Z,17.40
2018-06-17T04:51:22.908Z,17.40
2018-06-17T04:53:51.386Z,17.40
2018-06-17T04:56:19.859Z,17.30
2018-06-17T04:58:48.364Z,17.30
2018-06-17T05:01:16.815Z,17.30
2018-06-17T05:03:45.283Z,17.30
2018-06-17T05:06:13.815Z,17.20
2018-06-17T05:08:42.278Z,17.20
2018-06-17T05:11:10.799Z,17.20
2018-06-17T05:13:39.288Z,17.10
2018-06-17T05:16:07.751Z,17.00
2018-06-17T05:18:36.226Z,17.00
2018-06-17T05:21:04.670Z,16.90
2018-06-17T05:23:33.201Z,17.00
2018-06-17T05:26:01.672Z,16.90
2018-06-17T05:28:30.146Z,16.90
2018-06-17T05:30:58.652Z,17.00
2018-06-17T05:33:27.199Z,17.00
2018-06-17T05:35:55.718Z,17.20
2018-06-17T05:38:24.297Z,17.10
2018-06-17T05:40:55.723Z,17.20
2018-06-17T05:43:24.291Z,17.10
2018-06-17T05:45:52.800Z,17.20
2018-06-17T05:48:21.259Z,17.20
2018-06-17T05:50:49.714Z,17.20
2018-06-17T05:53:18.142Z,17.20
2018-06-17T05:55:46.796Z,17.20
2018-06-17T05:58:15.222Z,17.20
2018-06-17T06:00:43.681Z,17.40
2018-06-17T06:03:12.136Z,17.40
2018-06-17T06:05:40.616Z,17.40
2018-06-17T06:08:09.094Z,17.40
2018-06-17T06:10:37.533Z,17.30
2018-06-17T06:13:06.007Z,17.50
2018-06-17T06:15:34.462Z,17.60
2018-06-17T06:18:02.956Z,17.90
2018-06-17T06:20:31.403Z,18.00
2018-06-17T06:22:59.882Z,17.90
2018-06-17T06:25:28.315Z,17.80
2018-06-17T06:27:56.763Z,18.00
2018-06-17T06:30:25.228Z,18.30
2018-06-17T06:32:53.692Z,18.30
2018-06-17T06:35:22.128Z,18.50
2018-06-17T06:37:50.572Z,18.50
2018-06-17T06:40:19.044Z,19.10
2018-06-17T06:42:47.592Z,19.20
2018-06-17T06:45:16.077Z,19.30
2018-06-17T06:47:44.507Z,19.10
2018-06-17T06:50:13.257Z,19.00
2018-06-17T06:52:41.840Z,19.00
2018-06-17T06:55:10.478Z,19.40
2018-06-17T06:57:38.975Z,20.20
2018-06-17T07:00:07.457Z,20.80
2018-06-17T07:02:47.360Z,20.90
2018-06-17T07:08:00.745Z,20.60
2018-06-17T07:10:30.287Z,20.50
2018-06-17T07:12:58.788Z,20.30
2018-06-17T07:15:39.793Z,20.70
2018-06-17T07:18:20.873Z,21.50
2018-06-17T07:20:49.396Z,22.40
2018-06-17T07:23:17.959Z,23.40
2018-06-17T07:26:57.152Z,24.20
2018-06-17T07:29:38.251Z,25.00
2018-06-17T07:32:06.782Z,25.80
2018-06-17T07:34:35.310Z,26.60
2018-06-17T07:37:04.223Z,26.70
2018-06-17T07:41:42.764Z,27.00
2018-06-17T07:44:11.397Z,27.50
2018-06-17T07:46:40.088Z,28.60
2018-06-17T07:49:30.385Z,28.30
2018-06-17T07:52:12.395Z,27.60
2018-06-17T07:54:41.823Z,28.00
2018-06-17T07:57:11.495Z,27.60
2018-06-17T07:59:40.993Z,27.50
2018-06-17T08:02:10.342Z,26.60
2018-06-17T08:04:39.031Z,26.00
2018-06-17T08:07:08.124Z,26.30
2018-06-17T08:09:36.733Z,27.30
2018-06-17T08:12:05.921Z,28.00
2018-06-17T08:14:34.443Z,28.20
2018-06-17T08:17:02.929Z,29.30
2018-06-17T08:19:31.646Z,28.60
2018-06-17T08:22:00.782Z,28.00
2018-06-17T08:24:29.652Z,27.90
2018-06-17T08:26:58.246Z,27.70
2018-06-17T08:29:26.710Z,27.70
2018-06-17T08:31:55.498Z,28.70
2018-06-17T08:34:24.175Z,29.80
2018-06-17T08:36:52.778Z,29.80
2018-06-17T08:39:22.379Z,29.90
2018-06-17T08:41:51.011Z,30.40
2018-06-17T08:44:20.347Z,30.20
2018-06-17T08:46:49.716Z,30.10
2018-06-17T08:49:18.621Z,29.20
2018-06-17T08:51:47.191Z,29.90
2018-06-17T08:54:15.832Z,28.90
2018-06-17T08:56:44.372Z,27.80
2018-06-17T08:59:12.897Z,26.50
2018-06-17T09:01:41.483Z,26.50
2018-06-17T09:04:10.075Z,25.60
2018-06-17T09:06:38.587Z,25.20
2018-06-17T09:09:08.954Z,24.50
2018-06-17T09:11:37.843Z,25.00
2018-06-17T09:14:06.522Z,26.50
2018-06-17T09:16:35.191Z,27.40
2018-06-17T09:19:03.758Z,27.60
2018-06-17T09:21:32.251Z,27.00
2018-06-17T09:24:00.921Z,26.20
2018-06-17T09:26:29.424Z,25.30
2018-06-17T09:28:57.999Z,25.60
2018-06-17T09:31:26.534Z,27.30
2018-06-17T09:33:55.045Z,28.70
2018-06-17T09:36:23.528Z,29.20
2018-06-17T09:38:52.042Z,30.20
2018-06-17T09:41:20.555Z,29.00
2018-06-17T09:43:49.231Z,28.30
2018-06-17T09:46:17.714Z,27.20
2018-06-17T09:48:46.214Z,26.00
2018-06-17T09:51:14.727Z,26.50
2018-06-17T09:53:43.567Z,28.50
2018-06-17T09:56:12.109Z,29.70
2018-06-17T09:58:41.039Z,31.10
2018-06-17T10:01:09.823Z,31.70
2018-06-17T10:03:38.455Z,32.60
2018-06-17T10:06:07.049Z,32.20
2018-06-17T10:08:35.535Z,33.30
2018-06-17T10:11:06.055Z,33.50
2018-06-17T10:13:37.010Z,33.40
2018-06-17T10:16:05.757Z,33.90
2018-06-17T10:21:02.454Z,32.10
2018-06-17T10:23:30.932Z,32.30
2018-06-17T10:25:59.441Z,33.20
2018-06-17T10:28:28.933Z,32.80
2018-06-17T10:30:58.597Z,31.90
2018-06-17T10:33:27.094Z,29.70
2018-06-17T10:35:55.774Z,29.80
2018-06-17T10:38:24.327Z,29.70
2018-06-17T10:40:52.818Z,29.30
2018-06-17T10:43:22.773Z,28.80
2018-06-17T10:45:51.260Z,28.00
2018-06-17T10:48:19.775Z,27.40
2018-06-17T10:50:48.244Z,26.70
2018-06-17T10:53:16.723Z,25.90
2018-06-17T10:55:45.335Z,24.80
2018-06-17T10:58:13.743Z,24.50
2018-06-17T11:00:42.254Z,24.00
2018-06-17T11:03:10.768Z,23.80
2018-06-17T11:05:39.561Z,24.00
2018-06-17T11:08:08.010Z,23.80
2018-06-17T11:10:36.872Z,24.00
2018-06-17T11:13:05.603Z,24.40
2018-06-17T11:15:34.139Z,25.30
2018-06-17T11:18:02.600Z,26.30
2018-06-17T11:20:31.111Z,26.50
2018-06-17T11:22:59.601Z,26.40
2018-06-17T11:27:56.236Z,25.00
2018-06-17T11:30:24.716Z,24.80
2018-06-17T11:32:53.202Z,24.30
2018-06-17T11:35:21.736Z,24.00
2018-06-17T11:37:50.249Z,24.10
2018-06-17T11:40:18.749Z,24.00
2018-06-17T11:42:47.301Z,24.20
2018-06-17T11:45:15.774Z,24.10
2018-06-17T11:47:44.282Z,24.10
2018-06-17T11:50:12.771Z,24.20
2018-06-17T11:52:41.266Z,24.10
2018-06-17T11:55:09.790Z,24.00
2018-06-17T11:57:38.355Z,23.90
2018-06-17T12:00:07.228Z,24.40
2018-06-17T12:02:35.785Z,24.60
2018-06-17T12:05:04.308Z,24.70
2018-06-17T12:07:32.793Z,24.90
2018-06-17T12:10:01.305Z,24.80
2018-06-17T12:12:29.782Z,24.80
2018-06-17T12:14:58.295Z,24.80
2018-06-17T12:17:26.786Z,24.90
2018-06-17T12:19:55.321Z,24.90
2018-06-17T12:22:23.794Z,24.70
2018-06-17T12:24:52.296Z,24.50
2018-06-17T12:27:20.785Z,24.10
2018-06-17T12:29:49.254Z,24.00
2018-06-17T12:32:17.901Z,23.90
2018-06-17T12:34:46.406Z,23.70
2018-06-17T12:37:14.911Z,23.70
2018-06-17T12:39:43.451Z,23.80
2018-06-17T12:42:12.100Z,24.00
2018-06-17T12:44:40.601Z,24.20
2018-06-17T12:47:09.123Z,24.00
2018-06-17T12:49:37.726Z,24.00
2018-06-17T12:52:06.390Z,23.90
2018-06-17T12:54:34.907Z,23.60
2018-06-17T12:57:03.441Z,23.70
2018-06-17T12:59:31.884Z,23.80
2018-06-17T13:02:00.408Z,24.30
2018-06-17T13:04:28.977Z,25.10
2018-06-17T13:06:57.489Z,25.50
2018-06-17T13:09:25.967Z,26.00
2018-06-17T13:11:54.447Z,25.60
2018-06-17T13:14:22.958Z,25.40
2018-06-17T13:16:51.480Z,25.00
2018-06-17T13:19:20.036Z,25.10
2018-06-17T13:21:48.543Z,25.30
2018-06-17T13:24:17.052Z,25.60
2018-06-17T13:26:45.608Z,26.00
2018-06-17T13:29:14.102Z,26.20
2018-06-17T13:31:42.618Z,26.30
2018-06-17T13:34:11.118Z,25.80
2018-06-17T13:36:39.584Z,25.40
2018-06-17T13:39:08.576Z,25.70
2018-06-17T13:41:37.363Z,25.70
2018-06-17T13:44:05.934Z,25.70
2018-06-17T13:46:34.969Z,25.10
2018-06-17T13:49:03.687Z,25.10
2018-06-17T13:51:32.387Z,25.30
2018-06-17T13:54:00.921Z,25.50
2018-06-17T13:56:29.885Z,25.80
2018-06-17T13:58:58.607Z,26.10
2018-06-17T14:01:27.262Z,25.50
2018-06-17T14:03:55.723Z,25.30
2018-06-17T14:06:24.598Z,25.40
2018-06-17T14:08:53.318Z,24.90
2018-06-17T14:11:22.148Z,24.50
2018-06-17T14:13:50.987Z,24.40
2018-06-17T14:16:19.510Z,24.30
2018-06-17T14:18:48.143Z,24.20
2018-06-17T14:21:16.704Z,24.00
2018-06-17T14:23:45.343Z,23.60
2018-06-17T14:26:13.973Z,23.40
2018-06-17T14:28:42.462Z,23.20
2018-06-17T14:31:11.816Z,23.00
2018-06-17T14:33:40.331Z,22.80
2018-06-17T14:36:09.007Z,22.90
2018-06-17T14:38:37.544Z,22.80
2018-06-17T14:41:11.507Z,22.90
2018-06-17T14:43:45.438Z,23.00
2018-06-17T14:46:19.139Z,23.00
2018-06-17T14:48:53.142Z,23.20
2018-06-17T14:51:26.989Z,23.20
2018-06-17T14:53:55.633Z,23.10
2018-06-17T14:56:24.132Z,22.90
2018-06-17T14:58:53.022Z,22.80
2018-06-17T15:01:21.572Z,22.70
2018-06-17T15:03:50.100Z,22.70
2018-06-17T15:06:18.616Z,22.70
2018-06-17T15:08:47.190Z,22.90
2018-06-17T15:11:15.728Z,22.90
2018-06-17T15:13:44.415Z,22.90
2018-06-17T15:16:12.997Z,22.80
2018-06-17T15:18:41.672Z,22.80
2018-06-17T15:21:10.239Z,22.80
2018-06-17T15:23:38.841Z,22.90
2018-06-17T15:26:07.455Z,22.80
2018-06-17T15:28:36.010Z,22.70
2018-06-17T15:31:09.873Z,22.70
2018-06-17T15:33:43.937Z,22.50
2018-06-17T15:36:17.708Z,22.30
2018-06-17T15:38:54.005Z,22.10
2018-06-17T15:41:25.331Z,22.00
2018-06-17T15:43:55.732Z,21.90
2018-06-17T15:46:24.616Z,21.80
2018-06-17T15:48:53.276Z,21.70
2018-06-17T15:51:21.940Z,21.80
2018-06-17T15:53:50.539Z,21.80
2018-06-17T15:56:19.159Z,21.80
2018-06-17T15:58:47.744Z,21.70
2018-06-17T16:01:16.213Z,21.80
2018-06-17T16:03:44.848Z,21.70
2018-06-17T16:06:13.310Z,21.70
2018-06-17T16:08:41.837Z,21.70
2018-06-17T16:11:10.379Z,21.60
2018-06-17T16:13:44.230Z,21.70
2018-06-17T16:16:18.125Z,21.90
2018-06-17T16:18:51.760Z,21.80
2018-06-17T16:21:20.379Z,22.00
2018-06-17T16:23:48.868Z,21.90
2018-06-17T16:26:17.460Z,21.90
2018-06-17T16:28:45.935Z,21.90
2018-06-17T16:31:14.539Z,21.90
2018-06-17T16:33:43.046Z,22.00
2018-06-17T16:36:11.538Z,21.80
2018-06-17T16:38:40.026Z,21.70
2018-06-17T16:41:08.512Z,21.60
2018-06-17T16:43:37.115Z,21.80
2018-06-17T16:46:05.702Z,21.80
2018-06-17T16:48:34.378Z,21.70
2018-06-17T16:51:08.192Z,21.70
2018-06-17T16:53:41.893Z,21.70
2018-06-17T16:56:15.860Z,21.70
2018-06-17T16:58:49.644Z,21.50
2018-06-17T17:01:18.244Z,21.50
2018-06-17T17:03:46.702Z,21.40
2018-06-17T17:06:15.170Z,21.40
2018-06-17T17:08:43.642Z,21.20
2018-06-17T17:11:12.265Z,21.30
2018-06-17T17:13:40.738Z,21.30
2018-06-17T17:16:09.839Z,21.40
2018-06-17T17:18:38.392Z,21.20
2018-06-17T17:21:07.021Z,21.10
2018-06-17T17:23:35.580Z,21.00
2018-06-17T17:26:04.038Z,21.00
2018-06-17T17:28:32.559Z,20.90
2018-06-17T17:31:01.071Z,20.90
2018-06-17T17:33:34.969Z,20.70
2018-06-17T17:36:08.712Z,20.70
2018-06-17T17:38:42.702Z,20.50
2018-06-17T17:41:11.229Z,20.50
2018-06-17T17:43:39.730Z,20.50
2018-06-17T17:46:13.499Z,20.50
2018-06-17T17:48:42.649Z,20.50
2018-06-17T17:51:11.168Z,20.40
2018-06-17T17:53:39.768Z,20.30
2018-06-17T17:56:08.299Z,20.30
2018-06-17T17:58:36.830Z,20.30
2018-06-17T18:01:05.387Z,20.30
2018-06-17T18:03:34.075Z,20.30
2018-06-17T18:06:02.720Z,20.30
2018-06-17T18:08:31.318Z,20.30
2018-06-17T18:11:00.032Z,20.20
2018-06-17T18:13:28.556Z,20.20
2018-06-17T18:15:57.235Z,20.20
2018-06-17T18:18:25.843Z,20.10
2018-06-17T18:20:54.511Z,20.10
2018-06-17T18:23:23.076Z,20.00
2018-06-17T18:25:56.839Z,20.00
2018-06-17T18:28:30.823Z,20.00
2018-06-17T18:31:04.148Z,19.90
2018-06-17T18:33:38.029Z,19.90
2018-06-17T18:36:09.631Z,20.00
2018-06-17T18:38:40.256Z,19.80
2018-06-17T18:41:09.216Z,19.80
2018-06-17T18:43:38.040Z,19.80
2018-06-17T18:46:06.564Z,19.70
2018-06-17T18:48:36.282Z,19.80
2018-06-17T18:51:04.921Z,19.70
2018-06-17T18:53:33.544Z,19.70
2018-06-17T18:56:02.320Z,19.60
2018-06-17T18:58:30.915Z,19.50
2018-06-17T19:00:59.525Z,19.50
2018-06-17T19:03:28.031Z,19.40
2018-06-17T19:05:57.042Z,19.40
2018-06-17T19:08:31.053Z,19.40
2018-06-17T19:11:04.971Z,19.40
2018-06-17T19:13:38.734Z,19.40
2018-06-17T19:16:14.964Z,19.30
2018-06-17T19:18:43.612Z,19.40
2018-06-17T19:21:12.297Z,19.20
2018-06-17T19:23:40.824Z,19.20
2018-06-17T19:26:09.436Z,19.10
2018-06-17T19:28:38.139Z,19.10
2018-06-17T19:33:35.137Z,19.00
2018-06-17T19:36:03.684Z,19.00
2018-06-17T19:38:32.219Z,18.90
2018-06-17T19:41:00.759Z,18.90
2018-06-17T19:43:29.324Z,18.80
2018-06-17T19:45:57.946Z,18.90
2018-06-17T19:48:26.565Z,18.80
2018-06-17T19:51:00.446Z,18.80
2018-06-17T19:53:34.318Z,18.70
2018-06-17T19:56:08.112Z,18.70
2018-06-17T19:58:41.916Z,18.60
2018-06-17T20:01:10.570Z,18.60
2018-06-17T20:03:39.087Z,18.60
2018-06-17T20:06:07.640Z,18.60
2018-06-17T20:08:36.149Z,18.50
2018-06-17T20:11:04.734Z,18.60
2018-06-17T20:13:33.401Z,18.50
2018-06-17T20:16:01.891Z,18.40
2018-06-17T20:18:30.485Z,18.30
2018-06-17T20:20:59.059Z,18.20
2018-06-17T20:23:27.714Z,18.20
2018-06-17T20:25:56.227Z,18.20
2018-06-17T20:28:24.732Z,18.10
2018-06-17T20:30:53.363Z,18.00
2018-06-17T20:33:27.243Z,18.00
2018-06-17T20:36:01.013Z,18.10
2018-06-17T20:38:35.118Z,18.00
2018-06-17T20:41:09.070Z,18.00
2018-06-17T20:43:42.960Z,18.00
2018-06-17T20:46:11.452Z,18.00
2018-06-17T20:48:39.923Z,18.00
2018-06-17T20:51:08.523Z,17.90
2018-06-17T20:53:37.191Z,17.90
2018-06-17T20:56:06.006Z,17.80
2018-06-17T20:58:34.773Z,17.90
2018-06-17T21:01:03.264Z,17.80
2018-06-17T21:03:31.811Z,17.70
2018-06-17T21:06:00.334Z,17.80
2018-06-17T21:08:28.809Z,17.70
2018-06-17T21:10:57.412Z,17.60
2018-06-17T21:13:25.996Z,17.60
2018-06-17T21:15:54.500Z,17.50
2018-06-17T21:18:28.251Z,17.30
2018-06-17T21:21:02.167Z,17.40
2018-06-17T21:23:35.946Z,17.30
2018-06-17T21:26:09.759Z,17.30
2018-06-17T21:28:38.263Z,17.20
2018-06-17T21:31:06.784Z,17.20
2018-06-17T21:33:35.367Z,17.20
2018-06-17T21:36:03.857Z,17.20
2018-06-17T21:38:32.325Z,17.20
2018-06-17T21:41:00.868Z,17.20
2018-06-17T21:43:29.347Z,17.10
2018-06-17T21:45:57.823Z,17.10
2018-06-17T21:48:26.343Z,17.10
2018-06-17T21:50:54.823Z,17.10
2018-06-17T21:55:53.086Z,17.00
2018-06-17T21:58:27.046Z,17.10
2018-06-17T22:00:55.534Z,17.10
2018-06-17T22:03:24.035Z,17.10
2018-06-17T22:05:52.524Z,17.00
2018-06-17T22:08:26.510Z,17.10
2018-06-17T22:11:00.517Z,17.10
2018-06-17T22:13:33.196Z,17.10
2018-06-17T22:16:07.024Z,17.00
2018-06-17T22:18:35.676Z,16.90
2018-06-17T22:21:04.244Z,16.70
2018-06-17T22:23:32.716Z,16.60
2018-06-17T22:26:01.222Z,16.60
2018-06-17T22:28:29.742Z,16.40
2018-06-17T22:30:58.297Z,16.40
2018-06-17T22:33:26.768Z,16.30
2018-06-17T22:35:55.278Z,16.30
2018-06-17T22:38:23.833Z,16.20
2018-06-17T22:40:52.377Z,16.20
2018-06-17T22:43:20.937Z,16.20
2018-06-17T22:45:49.389Z,16.30
2018-06-17T22:48:17.857Z,16.10
2018-06-17T22:50:46.298Z,16.10
2018-06-17T22:53:25.897Z,16.10
2018-06-17T22:58:27.986Z,16.10
2018-06-17T23:01:01.786Z,16.10
2018-06-17T23:03:35.580Z,16.10
2018-06-17T23:06:09.250Z,16.00
2018-06-17T23:08:42.988Z,16.10
2018-06-17T23:11:11.438Z,16.10
2018-06-17T23:13:39.892Z,16.10
2018-06-17T23:16:08.383Z,16.00
2018-06-17T23:18:36.843Z,16.00
2018-06-17T23:21:05.398Z,16.00
2018-06-17T23:23:33.848Z,16.10
2018-06-17T23:26:02.313Z,16.00
2018-06-17T23:28:30.756Z,16.00
2018-06-17T23:30:59.262Z,15.90
2018-06-17T23:33:27.721Z,15.80
2018-06-17T23:35:56.175Z,15.80
2018-06-17T23:38:24.650Z,15.80
2018-06-17T23:40:53.104Z,15.80
2018-06-17T23:43:21.673Z,15.70
2018-06-17T23:45:55.593Z,15.70
2018-06-17T23:48:29.467Z,15.60
2018-06-17T23:51:03.186Z,15.60
2018-06-17T23:53:37.112Z,15.50
2018-06-17T23:56:08.570Z,15.60
2018-06-17T23:58:38.341Z,15.70
